»·PEaware :: N373EB KWHP-KHND

N373EB :: KWHP-KHND

FLIGHT INFORMATION

Flight Status: Arrived
Operator: Privately registered:
United States
More flights under this callsign
Pilot: Peder R. (40111)
Aircraft: BEECH AIRCRAFT DEBONAIR BONANZA
(BE33)
More flights by this aircraft type
Origin: KWHP Whiteman
United States
Destination: KHND Henderson
United States
More flights between these airports :: More routes between these airports
Route: WHP1 VNY TWINE PMD V12 BASAL V394 DAB V587 DANBY V21 BLD
File this flight plan on PilotEdge
Remarks: Still getting used to VR headset. Please go easy on me.
Altitude:
(Current/Filed)
11,000ft
Speed:
(Current/Filed)
155kts
Departed: 01-Dec-23 12:46 PM
Arrived: 01-Dec-23 02:48 PM
Distance/Time
Traveled:
191nm/2:02
Distance/Time
To Go:
Arrived

Flight Plot

Page will automatically refresh every two minutes.

Flight plan parsing failed; only flown route is shown


Map Options




Map Legend


Flown Route
Filed Route
Departure Airport
Arrival Airport
Navaid (VOR, NDB)
Fix

Horizontal Profiles

Position Reports

Time Latitude Longitude Heading Altitude Ground
Speed
01-Dec-23 12:24 34.260040 -118.413170 319 995ft 0kts
01-Dec-23 12:25 34.260040 -118.413170 319 995ft 0kts
01-Dec-23 12:26 34.260040 -118.413170 319 995ft 0kts
01-Dec-23 12:27 34.260040 -118.413170 319 995ft 0kts
01-Dec-23 12:28 34.260040 -118.413170 319 995ft 0kts
01-Dec-23 12:29 34.260040 -118.413170 319 995ft 0kts
01-Dec-23 12:30 34.260040 -118.413170 319 995ft 0kts
01-Dec-23 12:31 34.260040 -118.413170 319 995ft 0kts
01-Dec-23 12:32 34.260040 -118.413170 319 995ft 0kts
01-Dec-23 12:33 34.260040 -118.413170 319 995ft 0kts
01-Dec-23 12:34 34.260040 -118.413170 319 995ft 0kts
01-Dec-23 12:35 34.260040 -118.413170 319 995ft 0kts
01-Dec-23 12:36 34.259907 -118.413404 162 994ft 6kts
01-Dec-23 12:37 34.258144 -118.411584 138 984ft 8kts
01-Dec-23 12:38 34.256863 -118.410008 224 976ft 0kts
01-Dec-23 12:39 34.256863 -118.410008 224 976ft 0kts
01-Dec-23 12:40 34.256863 -118.410008 224 976ft 0kts
01-Dec-23 12:41 34.256863 -118.410008 223 976ft 0kts
01-Dec-23 12:42 34.256862 -118.410009 224 976ft 0kts
01-Dec-23 12:43 34.256860 -118.410012 223 976ft 0kts
01-Dec-23 12:44 34.255624 -118.408912 150 970ft 0kts
01-Dec-23 12:45 34.257813 -118.411921 315 983ft 69kts
01-Dec-23 12:46 34.267577 -118.435399 270 1960ft 86kts
01-Dec-23 12:47 34.265667 -118.470182 273 2664ft 110kts
01-Dec-23 12:48 34.269221 -118.505215 318 3571ft 94kts
01-Dec-23 12:49 34.291799 -118.522840 342 4360ft 99kts
01-Dec-23 12:50 34.300681 -118.550248 215 5072ft 143kts
01-Dec-23 12:51 34.267156 -118.539244 130 5990ft 121kts
01-Dec-23 12:52 34.241012 -118.513132 123 6828ft 115kts
01-Dec-23 12:53 34.216062 -118.487380 155 7550ft 126kts
01-Dec-23 12:54 34.201501 -118.519780 320 8158ft 129kts
01-Dec-23 12:55 34.232869 -118.541515 345 8788ft 121kts
01-Dec-23 12:56 34.265764 -118.559414 330 9307ft 132kts
01-Dec-23 12:57 34.292226 -118.594166 315 9832ft 139kts
01-Dec-23 12:58 34.319084 -118.595077 65 10304ft 101kts
01-Dec-23 12:59 34.334222 -118.564059 65 10757ft 104kts
01-Dec-23 13:00 34.349508 -118.531433 65 11002ft 121kts
01-Dec-23 13:01 34.367778 -118.492292 65 11029ft 138kts
01-Dec-23 13:02 34.387613 -118.450725 65 10991ft 146kts
01-Dec-23 13:03 34.412862 -118.411107 55 10957ft 148kts
01-Dec-23 13:04 34.439936 -118.372825 61 10976ft 150kts
01-Dec-23 13:05 34.465738 -118.332120 60 10982ft 152kts
01-Dec-23 13:06 34.491447 -118.291378 60 11024ft 151kts
01-Dec-23 13:07 34.516685 -118.249764 61 11051ft 150kts
01-Dec-23 13:08 34.542239 -118.208686 62 11069ft 151kts
01-Dec-23 13:09 34.567202 -118.165226 60 11044ft 154kts
01-Dec-23 13:10 34.595655 -118.122534 59 11030ft 153kts
01-Dec-23 13:11 34.619304 -118.080034 61 10958ft 150kts
01-Dec-23 13:12 34.634137 -118.036452 84 10989ft 139kts
01-Dec-23 13:13 34.639954 -117.989930 86 10986ft 138kts
01-Dec-23 13:14 34.643942 -117.943472 82 10984ft 138kts
01-Dec-23 13:15 34.650933 -117.897356 81 10976ft 138kts
01-Dec-23 13:16 34.655415 -117.851009 85 10967ft 137kts
01-Dec-23 13:17 34.660102 -117.804743 82 10971ft 137kts
01-Dec-23 13:18 34.664736 -117.758416 83 10967ft 137kts
01-Dec-23 13:19 34.670772 -117.712362 85 10960ft 137kts
01-Dec-23 13:20 34.675783 -117.665937 83 10955ft 137kts
01-Dec-23 13:21 34.679835 -117.619507 83 10959ft 137kts
01-Dec-23 13:22 34.684943 -117.573450 88 10954ft 137kts
01-Dec-23 13:23 34.689942 -117.527382 84 10955ft 137kts
01-Dec-23 13:24 34.692385 -117.481162 88 10973ft 135kts
01-Dec-23 13:25 34.700839 -117.435141 83 10936ft 143kts
01-Dec-23 13:26 34.705144 -117.387358 90 10953ft 142kts
01-Dec-23 13:27 34.708578 -117.339276 88 10978ft 142kts
01-Dec-23 13:28 34.712800 -117.291348 89 11011ft 142kts
01-Dec-23 13:29 34.717160 -117.243508 91 11046ft 141kts
01-Dec-23 13:30 34.722441 -117.195247 87 11033ft 144kts
01-Dec-23 13:31 34.728351 -117.146710 85 11007ft 146kts
01-Dec-23 13:32 34.733169 -117.097908 84 10985ft 147kts
01-Dec-23 13:33 34.739937 -117.048730 86 10989ft 147kts
01-Dec-23 13:34 34.744598 -116.998914 88 10991ft 149kts
01-Dec-23 13:35 34.749319 -116.948547 88 10986ft 151kts
01-Dec-23 13:36 34.753211 -116.897263 88 11014ft 152kts
01-Dec-23 13:37 34.767133 -116.849242 50 11029ft 159kts
01-Dec-23 13:38 34.796089 -116.808263 52 11042ft 161kts
01-Dec-23 13:39 34.825621 -116.766795 50 11025ft 162kts
01-Dec-23 13:40 34.855751 -116.725665 51 11003ft 162kts
01-Dec-23 13:41 34.884484 -116.683817 59 10978ft 161kts
01-Dec-23 13:42 34.913352 -116.642004 52 10989ft 161kts
01-Dec-23 13:43 34.942924 -116.600832 50 10997ft 160kts
01-Dec-23 13:44 34.969656 -116.558567 59 11026ft 154kts
01-Dec-23 13:45 34.989860 -116.512657 61 11022ft 154kts
01-Dec-23 13:46 35.010485 -116.466796 63 11013ft 153kts
01-Dec-23 13:47 35.031372 -116.420815 61 10992ft 154kts
01-Dec-23 13:48 35.051795 -116.374757 65 10972ft 154kts
01-Dec-23 13:49 35.071970 -116.328299 64 10966ft 154kts
01-Dec-23 13:50 35.092325 -116.282206 65 10977ft 153kts
01-Dec-23 13:51 35.112626 -116.236179 63 10991ft 153kts
01-Dec-23 13:52 35.132745 -116.189945 60 10999ft 153kts
01-Dec-23 13:53 35.154481 -116.144788 60 11007ft 153kts
01-Dec-23 13:54 35.175211 -116.099113 64 11018ft 153kts
01-Dec-23 13:55 35.196180 -116.053210 62 10995ft 154kts
01-Dec-23 13:56 35.216241 -116.006791 61 10994ft 154kts
01-Dec-23 13:57 35.235406 -115.959731 65 10983ft 154kts
01-Dec-23 13:58 35.256686 -115.914036 63 10989ft 154kts
01-Dec-23 13:59 35.276416 -115.867701 63 11019ft 152kts
01-Dec-23 14:00 35.296894 -115.821847 63 11022ft 153kts
01-Dec-23 14:01 35.318135 -115.776563 47 11015ft 155kts
01-Dec-23 14:02 35.347784 -115.738182 48 11050ft 154kts
01-Dec-23 14:03 35.377044 -115.699390 49 11050ft 154kts
01-Dec-23 14:04 35.405781 -115.660080 50 11052ft 154kts
01-Dec-23 14:05 35.435696 -115.621761 49 11054ft 154kts
01-Dec-23 14:06 35.464726 -115.582596 48 11050ft 155kts
01-Dec-23 14:07 35.493984 -115.543384 46 11028ft 156kts
01-Dec-23 14:08 35.522496 -115.503450 49 11023ft 155kts
01-Dec-23 14:09 35.550663 -115.463055 45 11009ft 155kts
01-Dec-23 14:10 35.581138 -115.425392 48 11007ft 155kts
01-Dec-23 14:11 35.610408 -115.386030 51 10990ft 155kts
01-Dec-23 14:12 35.639135 -115.346343 47 11012ft 154kts
01-Dec-23 14:13 35.668474 -115.307637 48 11030ft 154kts
01-Dec-23 14:14 35.697106 -115.267987 48 11039ft 155kts
01-Dec-23 14:15 35.727046 -115.229545 50 11029ft 156kts
01-Dec-23 14:16 35.755750 -115.189437 48 11032ft 155kts
01-Dec-23 14:17 35.786059 -115.151105 47 11024ft 156kts
01-Dec-23 14:18 35.814799 -115.110855 46 11013ft 156kts
01-Dec-23 14:19 35.844892 -115.071077 52 10982ft 153kts
01-Dec-23 14:20 35.871136 -115.033781 46 10969ft 138kts
01-Dec-23 14:21 35.895987 -115.000335 51 11003ft 127kts
01-Dec-23 14:22 35.919369 -114.966815 47 10926ft 130kts
01-Dec-23 14:23 35.944221 -114.934733 50 10983ft 129kts
01-Dec-23 14:24 35.968072 -114.901363 49 11005ft 128kts
01-Dec-23 14:25 35.992429 -114.868587 52 11001ft 128kts
01-Dec-23 14:26 35.989646 -114.832674 149 10670ft 125kts
01-Dec-23 14:27 35.956904 -114.829287 227 10216ft 136kts
01-Dec-23 14:28 35.976049 -114.858070 346 9721ft 143kts
01-Dec-23 14:29 36.011636 -114.858259 58 9375ft 134kts
01-Dec-23 14:31 35.993050 -114.828783 165 8850ft 134kts
01-Dec-23 14:32 35.958406 -114.821203 205 8541ft 126kts
01-Dec-23 14:33 35.968689 -114.852413 340 8231ft 126kts
01-Dec-23 14:34 36.003125 -114.864788 351 7898ft 127kts
01-Dec-23 14:35 36.008383 -114.836157 159 7368ft 123kts
01-Dec-23 14:36 35.975876 -114.825630 164 7088ft 119kts
01-Dec-23 14:37 35.948850 -114.834866 269 6572ft 134kts
01-Dec-23 14:38 35.979801 -114.857083 341 6241ft 122kts
01-Dec-23 14:39 35.995460 -114.885196 247 5933ft 118kts
01-Dec-23 14:40 35.989511 -114.926358 258 5721ft 118kts
01-Dec-23 14:41 35.983618 -114.966466 257 5755ft 110kts
01-Dec-23 14:42 35.978370 -115.003990 258 5770ft 107kts
01-Dec-23 14:43 35.974453 -115.041478 257 5750ft 107kts
01-Dec-23 14:44 35.970069 -115.079816 260 5461ft 111kts
01-Dec-23 14:45 35.949602 -115.100991 181 4767ft 109kts
01-Dec-23 14:46 35.935273 -115.124668 266 4097ft 87kts
01-Dec-23 14:47 35.953912 -115.135658 0 2974ft 94kts
01-Dec-23 14:48 35.974082 -115.135456 7 2427ft 33kts
01-Dec-23 14:49 35.977433 -115.136181 272 2412ft 0kts
01-Dec-23 14:50 35.977420 -115.136821 260 2412ft 0kts
01-Dec-23 14:51 35.977190 -115.137366 265 2411ft 10kts

Navigation Log

Ident Type
Flight plan parsing failed, navigation log unavailable